Indian Hills, Colorado
Current Conditions -  °F | °C
As of 5:48 PM on Monday 22 Dec 2014 (Local Time) from KBJC Reporting Station
Rain Showers Rain Showers  
Wind Chill: 26°   Ceiling: 9000
Heat Index: 32°   Visibility: 8mi
Dew Point: 27°   Wind: 6mph
Humidity: 80%   Direction: 320°NW
Pressure: 29.76"   Gusts: NA
Location:  39.62°N, 105.24°W
Report Text: KBJC 230048Z 32005KT 8SM VCSH SCT050 OVC090 00/M03 A2976
Loading
Personal Weather Stations






























Interactive Weather Map New forecast layout! Learn more

10-Day Weather Forecast

Advertisements
Track Severe Weather on mobile